sensor_id;sensor_type;location;lat;lon;timestamp;P1;durP1;ratioP1;P2;durP2;ratioP2
4533;SDS011;2279;51.448;7.306;2023-04-29T00:01:34;35.70;;;16.80;;
4533;SDS011;2279;51.448;7.306;2023-04-29T00:04:00;27.83;;;16.40;;
4533;SDS011;2279;51.448;7.306;2023-04-29T00:06:27;34.17;;;17.20;;
4533;SDS011;2279;51.448;7.306;2023-04-29T00:08:54;34.17;;;18.10;;
4533;SDS011;2279;51.448;7.306;2023-04-29T00:11:20;29.17;;;17.27;;
4533;SDS011;2279;51.448;7.306;2023-04-29T00:13:46;32.73;;;17.30;;
4533;SDS011;2279;51.448;7.306;2023-04-29T00:16:12;32.40;;;15.87;;
4533;SDS011;2279;51.448;7.306;2023-04-29T00:18:38;31.67;;;17.80;;
4533;SDS011;2279;51.448;7.306;2023-04-29T00:21:04;31.73;;;17.27;;
4533;SDS011;2279;51.448;7.306;2023-04-29T00:23:30;38.40;;;19.70;;
4533;SDS011;2279;51.448;7.306;2023-04-29T00:25:56;39.63;;;20.10;;
4533;SDS011;2279;51.448;7.306;2023-04-29T00:28:22;37.03;;;19.80;;
4533;SDS011;2279;51.448;7.306;2023-04-29T00:30:49;33.17;;;19.27;;
4533;SDS011;2279;51.448;7.306;2023-04-29T00:33:15;39.33;;;19.60;;
4533;SDS011;2279;51.448;7.306;2023-04-29T00:35:41;34.90;;;20.17;;
4533;SDS011;2279;51.448;7.306;2023-04-29T00:38:07;37.40;;;20.47;;
4533;SDS011;2279;51.448;7.306;2023-04-29T00:40:33;34.73;;;17.67;;
4533;SDS011;2279;51.448;7.306;2023-04-29T00:42:59;39.07;;;19.77;;
4533;SDS011;2279;51.448;7.306;2023-04-29T00:45:25;32.67;;;19.43;;
4533;SDS011;2279;51.448;7.306;2023-04-29T00:47:51;39.37;;;22.40;;
4533;SDS011;2279;51.448;7.306;2023-04-29T00:50:17;38.43;;;21.27;;
4533;SDS011;2279;51.448;7.306;2023-04-29T00:52:43;38.80;;;21.23;;
4533;SDS011;2279;51.448;7.306;2023-04-29T00:55:10;37.93;;;19.77;;
4533;SDS011;2279;51.448;7.306;2023-04-29T00:57:37;32.27;;;18.57;;
4533;SDS011;2279;51.448;7.306;2023-04-29T01:00:03;34.93;;;20.27;;
4533;SDS011;2279;51.448;7.306;2023-04-29T01:02:29;37.50;;;21.00;;
4533;SDS011;2279;51.448;7.306;2023-04-29T01:04:55;35.70;;;19.73;;
4533;SDS011;2279;51.448;7.306;2023-04-29T01:09:50;38.40;;;21.10;;
4533;SDS011;2279;51.448;7.306;2023-04-29T01:14:47;50.80;;;20.87;;
4533;SDS011;2279;51.448;7.306;2023-04-29T01:17:14;41.03;;;21.70;;
4533;SDS011;2279;51.448;7.306;2023-04-29T01:19:49;50.70;;;21.87;;
4533;SDS011;2279;51.448;7.306;2023-04-29T01:22:17;51.10;;;22.40;;
4533;SDS011;2279;51.448;7.306;2023-04-29T01:24:44;37.27;;;20.43;;
4533;SDS011;2279;51.448;7.306;2023-04-29T01:27:20;45.27;;;21.50;;
4533;SDS011;2279;51.448;7.306;2023-04-29T01:32:18;50.80;;;21.83;;
4533;SDS011;2279;51.448;7.306;2023-04-29T01:34:54;52.23;;;23.27;;
4533;SDS011;2279;51.448;7.306;2023-04-29T01:39:55;58.03;;;23.97;;
4533;SDS011;2279;51.448;7.306;2023-04-29T01:42:29;70.93;;;27.63;;
4533;SDS011;2279;51.448;7.306;2023-04-29T01:44:59;54.93;;;26.23;;
4533;SDS011;2279;51.448;7.306;2023-04-29T01:47:25;54.37;;;25.90;;
4533;SDS011;2279;51.448;7.306;2023-04-29T01:49:52;57.40;;;29.23;;
4533;SDS011;2279;51.448;7.306;2023-04-29T01:52:17;61.77;;;27.67;;
4533;SDS011;2279;51.448;7.306;2023-04-29T01:54:43;65.17;;;29.30;;
4533;SDS011;2279;51.448;7.306;2023-04-29T01:57:10;65.93;;;29.93;;
4533;SDS011;2279;51.448;7.306;2023-04-29T01:59:36;71.57;;;29.97;;
4533;SDS011;2279;51.448;7.306;2023-04-29T02:02:02;66.13;;;27.83;;
4533;SDS011;2279;51.448;7.306;2023-04-29T02:04:28;79.77;;;28.60;;
4533;SDS011;2279;51.448;7.306;2023-04-29T02:06:57;79.17;;;33.50;;
4533;SDS011;2279;51.448;7.306;2023-04-29T02:09:23;74.93;;;32.20;;
4533;SDS011;2279;51.448;7.306;2023-04-29T02:11:49;77.60;;;32.10;;
4533;SDS011;2279;51.448;7.306;2023-04-29T02:14:15;90.03;;;32.13;;
4533;SDS011;2279;51.448;7.306;2023-04-29T02:16:44;77.57;;;29.43;;
4533;SDS011;2279;51.448;7.306;2023-04-29T02:19:10;72.57;;;30.03;;
4533;SDS011;2279;51.448;7.306;2023-04-29T02:21:36;82.93;;;31.57;;
4533;SDS011;2279;51.448;7.306;2023-04-29T02:24:04;81.07;;;32.77;;
4533;SDS011;2279;51.448;7.306;2023-04-29T02:26:30;76.10;;;27.90;;
4533;SDS011;2279;51.448;7.306;2023-04-29T02:28:58;79.47;;;29.63;;
4533;SDS011;2279;51.448;7.306;2023-04-29T02:31:23;86.50;;;28.60;;
4533;SDS011;2279;51.448;7.306;2023-04-29T02:33:49;77.50;;;29.13;;
4533;SDS011;2279;51.448;7.306;2023-04-29T02:36:15;71.67;;;27.10;;
4533;SDS011;2279;51.448;7.306;2023-04-29T02:38:42;91.70;;;31.43;;
4533;SDS011;2279;51.448;7.306;2023-04-29T02:41:08;82.90;;;30.57;;
4533;SDS011;2279;51.448;7.306;2023-04-29T02:43:34;81.03;;;28.20;;
4533;SDS011;2279;51.448;7.306;2023-04-29T02:46:00;76.17;;;30.70;;
4533;SDS011;2279;51.448;7.306;2023-04-29T02:48:26;72.93;;;28.10;;
4533;SDS011;2279;51.448;7.306;2023-04-29T02:50:52;73.83;;;29.30;;
4533;SDS011;2279;51.448;7.306;2023-04-29T02:53:18;73.43;;;29.67;;
4533;SDS011;2279;51.448;7.306;2023-04-29T02:55:44;77.77;;;31.80;;
4533;SDS011;2279;51.448;7.306;2023-04-29T02:58:11;94.20;;;31.63;;
4533;SDS011;2279;51.448;7.306;2023-04-29T03:00:37;74.73;;;29.67;;
4533;SDS011;2279;51.448;7.306;2023-04-29T03:03:05;78.83;;;32.70;;
4533;SDS011;2279;51.448;7.306;2023-04-29T03:05:31;79.13;;;28.50;;
4533;SDS011;2279;51.448;7.306;2023-04-29T03:07:57;77.47;;;29.23;;
4533;SDS011;2279;51.448;7.306;2023-04-29T03:10:23;78.53;;;28.47;;
4533;SDS011;2279;51.448;7.306;2023-04-29T03:12:48;71.67;;;27.73;;
4533;SDS011;2279;51.448;7.306;2023-04-29T03:15:14;65.30;;;25.97;;
4533;SDS011;2279;51.448;7.306;2023-04-29T03:17:41;59.70;;;22.97;;
4533;SDS011;2279;51.448;7.306;2023-04-29T03:20:07;47.07;;;21.67;;
4533;SDS011;2279;51.448;7.306;2023-04-29T03:22:34;56.13;;;21.57;;
4533;SDS011;2279;51.448;7.306;2023-04-29T03:25:01;43.90;;;19.97;;
4533;SDS011;2279;51.448;7.306;2023-04-29T03:27:26;49.50;;;21.30;;
4533;SDS011;2279;51.448;7.306;2023-04-29T03:29:53;43.50;;;19.47;;
4533;SDS011;2279;51.448;7.306;2023-04-29T03:32:19;55.37;;;22.87;;
4533;SDS011;2279;51.448;7.306;2023-04-29T03:34:44;55.30;;;18.90;;
4533;SDS011;2279;51.448;7.306;2023-04-29T03:37:10;49.40;;;19.50;;
4533;SDS011;2279;51.448;7.306;2023-04-29T03:39:36;48.73;;;18.10;;
4533;SDS011;2279;51.448;7.306;2023-04-29T03:42:03;40.60;;;17.50;;
4533;SDS011;2279;51.448;7.306;2023-04-29T03:44:29;33.73;;;16.63;;
4533;SDS011;2279;51.448;7.306;2023-04-29T03:46:55;39.27;;;17.93;;
4533;SDS011;2279;51.448;7.306;2023-04-29T03:49:20;46.73;;;18.20;;
4533;SDS011;2279;51.448;7.306;2023-04-29T03:51:47;46.13;;;19.60;;
4533;SDS011;2279;51.448;7.306;2023-04-29T03:54:13;39.27;;;18.73;;
4533;SDS011;2279;51.448;7.306;2023-04-29T03:56:39;42.90;;;20.60;;
4533;SDS011;2279;51.448;7.306;2023-04-29T03:59:05;45.07;;;20.90;;
4533;SDS011;2279;51.448;7.306;2023-04-29T04:01:31;54.33;;;21.63;;
4533;SDS011;2279;51.448;7.306;2023-04-29T04:03:57;58.83;;;23.90;;
4533;SDS011;2279;51.448;7.306;2023-04-29T04:06:23;52.60;;;20.17;;
4533;SDS011;2279;51.448;7.306;2023-04-29T04:08:50;49.07;;;21.57;;
4533;SDS011;2279;51.448;7.306;2023-04-29T04:11:16;50.37;;;19.97;;
4533;SDS011;2279;51.448;7.306;2023-04-29T04:13:42;44.03;;;19.10;;
4533;SDS011;2279;51.448;7.306;2023-04-29T04:16:08;38.97;;;19.03;;
4533;SDS011;2279;51.448;7.306;2023-04-29T04:18:37;43.23;;;19.20;;
4533;SDS011;2279;51.448;7.306;2023-04-29T04:21:07;48.37;;;20.57;;
4533;SDS011;2279;51.448;7.306;2023-04-29T04:23:33;46.63;;;20.43;;
4533;SDS011;2279;51.448;7.306;2023-04-29T04:25:59;40.80;;;20.10;;
4533;SDS011;2279;51.448;7.306;2023-04-29T04:28:25;41.70;;;20.07;;
4533;SDS011;2279;51.448;7.306;2023-04-29T04:30:51;51.93;;;20.23;;
4533;SDS011;2279;51.448;7.306;2023-04-29T04:33:17;44.10;;;19.13;;
4533;SDS011;2279;51.448;7.306;2023-04-29T04:35:43;36.97;;;19.60;;
4533;SDS011;2279;51.448;7.306;2023-04-29T04:38:09;43.43;;;21.60;;
4533;SDS011;2279;51.448;7.306;2023-04-29T04:40:35;38.83;;;18.60;;
4533;SDS011;2279;51.448;7.306;2023-04-29T04:43:01;40.63;;;21.47;;
4533;SDS011;2279;51.448;7.306;2023-04-29T04:45:27;35.07;;;18.40;;
4533;SDS011;2279;51.448;7.306;2023-04-29T04:47:54;46.63;;;18.60;;
4533;SDS011;2279;51.448;7.306;2023-04-29T04:50:20;42.40;;;20.47;;
4533;SDS011;2279;51.448;7.306;2023-04-29T04:52:46;41.37;;;19.10;;
4533;SDS011;2279;51.448;7.306;2023-04-29T04:55:12;35.07;;;17.13;;
4533;SDS011;2279;51.448;7.306;2023-04-29T04:57:38;43.70;;;21.10;;
4533;SDS011;2279;51.448;7.306;2023-04-29T05:00:04;40.10;;;20.40;;
4533;SDS011;2279;51.448;7.306;2023-04-29T05:02:30;36.60;;;18.10;;
4533;SDS011;2279;51.448;7.306;2023-04-29T05:04:56;35.17;;;17.97;;
4533;SDS011;2279;51.448;7.306;2023-04-29T05:07:22;35.53;;;17.63;;
4533;SDS011;2279;51.448;7.306;2023-04-29T05:09:48;39.13;;;18.93;;
4533;SDS011;2279;51.448;7.306;2023-04-29T05:12:14;42.70;;;18.87;;
4533;SDS011;2279;51.448;7.306;2023-04-29T05:14:41;45.37;;;19.63;;
4533;SDS011;2279;51.448;7.306;2023-04-29T05:17:06;42.83;;;20.70;;
4533;SDS011;2279;51.448;7.306;2023-04-29T05:19:34;42.10;;;20.00;;
4533;SDS011;2279;51.448;7.306;2023-04-29T05:21:59;38.97;;;19.70;;
4533;SDS011;2279;51.448;7.306;2023-04-29T05:24:25;42.57;;;19.90;;
4533;SDS011;2279;51.448;7.306;2023-04-29T05:26:53;49.60;;;21.80;;
4533;SDS011;2279;51.448;7.306;2023-04-29T05:29:19;41.97;;;21.53;;
4533;SDS011;2279;51.448;7.306;2023-04-29T05:31:45;46.07;;;21.00;;
4533;SDS011;2279;51.448;7.306;2023-04-29T05:34:11;46.53;;;22.47;;
4533;SDS011;2279;51.448;7.306;2023-04-29T05:36:37;43.80;;;20.93;;
4533;SDS011;2279;51.448;7.306;2023-04-29T05:39:03;47.23;;;21.70;;
4533;SDS011;2279;51.448;7.306;2023-04-29T05:41:29;44.60;;;22.30;;
4533;SDS011;2279;51.448;7.306;2023-04-29T05:43:55;46.23;;;20.90;;
4533;SDS011;2279;51.448;7.306;2023-04-29T05:46:21;42.13;;;21.93;;
4533;SDS011;2279;51.448;7.306;2023-04-29T05:48:47;40.50;;;22.00;;
4533;SDS011;2279;51.448;7.306;2023-04-29T05:51:13;40.60;;;21.47;;
4533;SDS011;2279;51.448;7.306;2023-04-29T05:53:39;40.07;;;20.60;;
4533;SDS011;2279;51.448;7.306;2023-04-29T05:56:05;37.37;;;21.30;;
4533;SDS011;2279;51.448;7.306;2023-04-29T05:58:32;41.57;;;21.93;;
4533;SDS011;2279;51.448;7.306;2023-04-29T06:00:58;42.43;;;22.57;;
4533;SDS011;2279;51.448;7.306;2023-04-29T06:03:25;41.67;;;20.63;;
4533;SDS011;2279;51.448;7.306;2023-04-29T06:05:51;41.30;;;21.00;;
4533;SDS011;2279;51.448;7.306;2023-04-29T06:08:17;45.83;;;21.90;;
4533;SDS011;2279;51.448;7.306;2023-04-29T06:10:43;43.70;;;20.27;;
4533;SDS011;2279;51.448;7.306;2023-04-29T06:13:10;49.07;;;24.50;;
4533;SDS011;2279;51.448;7.306;2023-04-29T06:15:36;39.13;;;19.97;;
4533;SDS011;2279;51.448;7.306;2023-04-29T06:18:02;43.00;;;23.00;;
4533;SDS011;2279;51.448;7.306;2023-04-29T06:20:28;43.67;;;20.90;;
4533;SDS011;2279;51.448;7.306;2023-04-29T06:22:54;55.27;;;27.60;;
4533;SDS011;2279;51.448;7.306;2023-04-29T06:25:20;38.23;;;20.93;;
4533;SDS011;2279;51.448;7.306;2023-04-29T06:27:46;40.33;;;21.60;;
4533;SDS011;2279;51.448;7.306;2023-04-29T06:30:13;40.40;;;20.27;;
4533;SDS011;2279;51.448;7.306;2023-04-29T06:32:39;40.63;;;21.30;;
4533;SDS011;2279;51.448;7.306;2023-04-29T06:35:05;40.10;;;21.20;;
4533;SDS011;2279;51.448;7.306;2023-04-29T06:37:31;38.87;;;20.07;;
4533;SDS011;2279;51.448;7.306;2023-04-29T06:39:58;35.70;;;20.20;;
4533;SDS011;2279;51.448;7.306;2023-04-29T06:42:24;34.23;;;19.07;;
4533;SDS011;2279;51.448;7.306;2023-04-29T06:44:49;34.60;;;20.20;;
4533;SDS011;2279;51.448;7.306;2023-04-29T06:47:15;43.30;;;22.13;;
4533;SDS011;2279;51.448;7.306;2023-04-29T06:49:41;34.30;;;19.67;;
4533;SDS011;2279;51.448;7.306;2023-04-29T06:52:07;38.70;;;21.60;;
4533;SDS011;2279;51.448;7.306;2023-04-29T06:54:33;37.03;;;21.10;;
4533;SDS011;2279;51.448;7.306;2023-04-29T06:56:59;38.20;;;19.67;;
4533;SDS011;2279;51.448;7.306;2023-04-29T06:59:26;39.40;;;18.70;;
4533;SDS011;2279;51.448;7.306;2023-04-29T07:01:52;42.30;;;22.67;;
4533;SDS011;2279;51.448;7.306;2023-04-29T07:04:18;31.03;;;18.83;;
4533;SDS011;2279;51.448;7.306;2023-04-29T07:06:44;34.70;;;19.83;;
4533;SDS011;2279;51.448;7.306;2023-04-29T07:09:11;34.23;;;18.70;;
4533;SDS011;2279;51.448;7.306;2023-04-29T07:11:38;36.53;;;22.07;;
4533;SDS011;2279;51.448;7.306;2023-04-29T07:14:04;37.33;;;20.23;;
4533;SDS011;2279;51.448;7.306;2023-04-29T07:16:31;42.00;;;21.10;;
4533;SDS011;2279;51.448;7.306;2023-04-29T07:18:57;42.10;;;22.00;;
4533;SDS011;2279;51.448;7.306;2023-04-29T07:21:23;43.13;;;21.40;;
4533;SDS011;2279;51.448;7.306;2023-04-29T07:23:49;38.93;;;19.30;;
4533;SDS011;2279;51.448;7.306;2023-04-29T07:26:15;35.23;;;20.67;;
4533;SDS011;2279;51.448;7.306;2023-04-29T07:28:42;38.77;;;21.40;;
4533;SDS011;2279;51.448;7.306;2023-04-29T07:31:08;38.10;;;22.40;;
4533;SDS011;2279;51.448;7.306;2023-04-29T07:33:34;41.20;;;20.97;;
4533;SDS011;2279;51.448;7.306;2023-04-29T07:36:01;42.87;;;20.60;;
4533;SDS011;2279;51.448;7.306;2023-04-29T07:38:27;44.93;;;24.40;;
4533;SDS011;2279;51.448;7.306;2023-04-29T07:40:53;41.40;;;22.90;;
4533;SDS011;2279;51.448;7.306;2023-04-29T07:43:20;49.57;;;22.80;;
4533;SDS011;2279;51.448;7.306;2023-04-29T07:45:46;46.97;;;23.60;;
4533;SDS011;2279;51.448;7.306;2023-04-29T07:48:12;41.70;;;23.53;;
4533;SDS011;2279;51.448;7.306;2023-04-29T07:50:38;42.97;;;23.93;;
4533;SDS011;2279;51.448;7.306;2023-04-29T07:53:04;48.80;;;24.23;;
4533;SDS011;2279;51.448;7.306;2023-04-29T07:55:30;41.57;;;21.93;;
4533;SDS011;2279;51.448;7.306;2023-04-29T07:57:59;45.67;;;24.63;;
4533;SDS011;2279;51.448;7.306;2023-04-29T08:00:25;48.67;;;23.97;;
4533;SDS011;2279;51.448;7.306;2023-04-29T08:02:52;41.60;;;22.90;;
4533;SDS011;2279;51.448;7.306;2023-04-29T08:05:19;45.47;;;23.93;;
4533;SDS011;2279;51.448;7.306;2023-04-29T08:07:48;44.90;;;24.03;;
4533;SDS011;2279;51.448;7.306;2023-04-29T08:10:14;43.93;;;23.43;;
4533;SDS011;2279;51.448;7.306;2023-04-29T08:12:40;49.70;;;24.93;;
4533;SDS011;2279;51.448;7.306;2023-04-29T08:15:07;47.63;;;22.17;;
4533;SDS011;2279;51.448;7.306;2023-04-29T08:17:33;46.00;;;24.33;;
4533;SDS011;2279;51.448;7.306;2023-04-29T08:19:59;49.73;;;25.97;;
4533;SDS011;2279;51.448;7.306;2023-04-29T08:22:25;53.17;;;26.37;;
4533;SDS011;2279;51.448;7.306;2023-04-29T08:24:51;47.30;;;25.47;;
4533;SDS011;2279;51.448;7.306;2023-04-29T08:27:17;52.83;;;25.70;;
4533;SDS011;2279;51.448;7.306;2023-04-29T08:29:45;51.23;;;27.77;;
4533;SDS011;2279;51.448;7.306;2023-04-29T08:32:11;50.73;;;28.50;;
4533;SDS011;2279;51.448;7.306;2023-04-29T08:34:37;46.37;;;24.47;;
4533;SDS011;2279;51.448;7.306;2023-04-29T08:37:03;51.73;;;26.90;;
4533;SDS011;2279;51.448;7.306;2023-04-29T08:39:29;55.53;;;26.03;;
4533;SDS011;2279;51.448;7.306;2023-04-29T08:41:56;49.47;;;25.80;;
4533;SDS011;2279;51.448;7.306;2023-04-29T08:44:24;55.20;;;26.77;;
4533;SDS011;2279;51.448;7.306;2023-04-29T08:46:50;54.10;;;24.87;;
4533;SDS011;2279;51.448;7.306;2023-04-29T08:49:17;56.70;;;26.37;;
4533;SDS011;2279;51.448;7.306;2023-04-29T08:51:43;46.23;;;23.90;;
4533;SDS011;2279;51.448;7.306;2023-04-29T08:54:10;55.73;;;25.93;;
4533;SDS011;2279;51.448;7.306;2023-04-29T08:56:35;46.87;;;24.27;;
4533;SDS011;2279;51.448;7.306;2023-04-29T08:59:02;58.10;;;27.00;;
4533;SDS011;2279;51.448;7.306;2023-04-29T09:01:28;50.10;;;25.27;;
4533;SDS011;2279;51.448;7.306;2023-04-29T09:06:23;55.37;;;25.77;;
4533;SDS011;2279;51.448;7.306;2023-04-29T09:08:49;57.13;;;27.73;;
4533;SDS011;2279;51.448;7.306;2023-04-29T09:11:15;53.77;;;27.57;;
4533;SDS011;2279;51.448;7.306;2023-04-29T09:13:42;60.53;;;25.40;;
4533;SDS011;2279;51.448;7.306;2023-04-29T09:16:11;54.13;;;28.03;;
4533;SDS011;2279;51.448;7.306;2023-04-29T09:21:26;49.53;;;27.10;;
4533;SDS011;2279;51.448;7.306;2023-04-29T09:23:53;56.43;;;23.83;;
4533;SDS011;2279;51.448;7.306;2023-04-29T09:26:19;46.03;;;24.83;;
4533;SDS011;2279;51.448;7.306;2023-04-29T09:28:46;56.50;;;26.33;;
4533;SDS011;2279;51.448;7.306;2023-04-29T09:31:13;47.00;;;26.13;;
4533;SDS011;2279;51.448;7.306;2023-04-29T09:33:53;52.87;;;26.77;;
4533;SDS011;2279;51.448;7.306;2023-04-29T09:39:01;52.60;;;26.97;;
4533;SDS011;2279;51.448;7.306;2023-04-29T09:41:29;47.47;;;24.93;;
4533;SDS011;2279;51.448;7.306;2023-04-29T09:44:08;56.87;;;26.50;;
4533;SDS011;2279;51.448;7.306;2023-04-29T09:46:34;53.83;;;27.03;;
4533;SDS011;2279;51.448;7.306;2023-04-29T09:49:01;53.23;;;25.47;;
4533;SDS011;2279;51.448;7.306;2023-04-29T09:51:28;56.63;;;27.50;;
4533;SDS011;2279;51.448;7.306;2023-04-29T09:53:56;52.47;;;27.30;;
4533;SDS011;2279;51.448;7.306;2023-04-29T09:56:22;52.53;;;26.80;;
4533;SDS011;2279;51.448;7.306;2023-04-29T09:58:48;57.27;;;26.97;;
4533;SDS011;2279;51.448;7.306;2023-04-29T10:01:14;42.80;;;25.47;;
4533;SDS011;2279;51.448;7.306;2023-04-29T10:03:43;48.53;;;24.03;;
4533;SDS011;2279;51.448;7.306;2023-04-29T10:06:10;54.23;;;24.50;;
4533;SDS011;2279;51.448;7.306;2023-04-29T10:08:35;48.03;;;24.23;;
4533;SDS011;2279;51.448;7.306;2023-04-29T10:11:02;42.60;;;24.07;;
4533;SDS011;2279;51.448;7.306;2023-04-29T10:13:29;52.27;;;23.00;;
4533;SDS011;2279;51.448;7.306;2023-04-29T10:16:02;46.93;;;24.53;;
4533;SDS011;2279;51.448;7.306;2023-04-29T10:18:34;48.93;;;24.73;;
4533;SDS011;2279;51.448;7.306;2023-04-29T10:21:05;39.27;;;23.93;;
4533;SDS011;2279;51.448;7.306;2023-04-29T10:23:32;46.47;;;25.80;;
4533;SDS011;2279;51.448;7.306;2023-04-29T10:25:59;48.57;;;24.50;;
4533;SDS011;2279;51.448;7.306;2023-04-29T10:28:27;44.27;;;25.20;;
4533;SDS011;2279;51.448;7.306;2023-04-29T10:30:56;43.00;;;22.57;;
4533;SDS011;2279;51.448;7.306;2023-04-29T10:33:22;42.37;;;22.30;;
4533;SDS011;2279;51.448;7.306;2023-04-29T10:35:51;42.00;;;24.63;;
4533;SDS011;2279;51.448;7.306;2023-04-29T10:41:21;42.47;;;22.00;;
4533;SDS011;2279;51.448;7.306;2023-04-29T10:43:50;41.53;;;21.67;;
4533;SDS011;2279;51.448;7.306;2023-04-29T10:48:42;35.30;;;21.40;;
4533;SDS011;2279;51.448;7.306;2023-04-29T10:51:08;30.33;;;20.03;;
4533;SDS011;2279;51.448;7.306;2023-04-29T10:53:34;34.03;;;20.60;;
4533;SDS011;2279;51.448;7.306;2023-04-29T10:56:08;39.83;;;22.97;;
4533;SDS011;2279;51.448;7.306;2023-04-29T10:58:41;40.13;;;23.90;;
4533;SDS011;2279;51.448;7.306;2023-04-29T11:01:12;33.97;;;22.90;;
4533;SDS011;2279;51.448;7.306;2023-04-29T11:03:45;35.93;;;21.13;;
4533;SDS011;2279;51.448;7.306;2023-04-29T11:06:12;32.53;;;21.10;;
4533;SDS011;2279;51.448;7.306;2023-04-29T11:08:38;32.13;;;20.43;;
4533;SDS011;2279;51.448;7.306;2023-04-29T11:11:04;28.97;;;20.73;;
4533;SDS011;2279;51.448;7.306;2023-04-29T11:13:31;31.97;;;21.37;;
4533;SDS011;2279;51.448;7.306;2023-04-29T11:16:05;30.03;;;18.87;;
4533;SDS011;2279;51.448;7.306;2023-04-29T11:18:31;31.50;;;18.97;;
4533;SDS011;2279;51.448;7.306;2023-04-29T11:23:34;32.93;;;17.60;;
4533;SDS011;2279;51.448;7.306;2023-04-29T11:26:00;27.30;;;18.70;;
4533;SDS011;2279;51.448;7.306;2023-04-29T11:28:26;29.87;;;17.33;;
4533;SDS011;2279;51.448;7.306;2023-04-29T11:30:52;26.07;;;18.20;;
4533;SDS011;2279;51.448;7.306;2023-04-29T11:33:19;28.47;;;17.40;;
4533;SDS011;2279;51.448;7.306;2023-04-29T11:35:45;28.30;;;17.97;;
4533;SDS011;2279;51.448;7.306;2023-04-29T11:38:11;28.53;;;18.90;;
4533;SDS011;2279;51.448;7.306;2023-04-29T11:40:49;29.10;;;18.07;;
4533;SDS011;2279;51.448;7.306;2023-04-29T11:43:19;26.33;;;18.50;;
4533;SDS011;2279;51.448;7.306;2023-04-29T11:45:45;31.57;;;18.20;;
4533;SDS011;2279;51.448;7.306;2023-04-29T11:48:18;23.70;;;17.83;;
4533;SDS011;2279;51.448;7.306;2023-04-29T11:50:47;29.27;;;16.77;;
4533;SDS011;2279;51.448;7.306;2023-04-29T11:53:14;25.90;;;16.80;;
4533;SDS011;2279;51.448;7.306;2023-04-29T11:55:41;23.53;;;16.60;;
4533;SDS011;2279;51.448;7.306;2023-04-29T11:58:07;21.60;;;15.83;;
4533;SDS011;2279;51.448;7.306;2023-04-29T12:00:33;29.17;;;16.87;;
4533;SDS011;2279;51.448;7.306;2023-04-29T12:03:00;25.43;;;15.80;;
4533;SDS011;2279;51.448;7.306;2023-04-29T12:05:26;22.90;;;14.90;;
4533;SDS011;2279;51.448;7.306;2023-04-29T12:07:53;27.87;;;16.80;;
4533;SDS011;2279;51.448;7.306;2023-04-29T12:10:19;19.10;;;15.60;;
4533;SDS011;2279;51.448;7.306;2023-04-29T12:12:45;15.97;;;14.27;;
4533;SDS011;2279;51.448;7.306;2023-04-29T12:15:12;23.50;;;14.70;;
4533;SDS011;2279;51.448;7.306;2023-04-29T12:17:39;18.60;;;13.73;;
4533;SDS011;2279;51.448;7.306;2023-04-29T12:20:08;17.97;;;13.70;;
4533;SDS011;2279;51.448;7.306;2023-04-29T12:22:35;19.93;;;14.13;;
4533;SDS011;2279;51.448;7.306;2023-04-29T12:25:04;17.77;;;13.40;;
4533;SDS011;2279;51.448;7.306;2023-04-29T12:27:30;19.60;;;12.90;;
4533;SDS011;2279;51.448;7.306;2023-04-29T12:29:57;19.33;;;13.83;;
4533;SDS011;2279;51.448;7.306;2023-04-29T12:32:23;21.00;;;13.87;;
4533;SDS011;2279;51.448;7.306;2023-04-29T12:34:50;21.17;;;14.30;;
4533;SDS011;2279;51.448;7.306;2023-04-29T12:37:16;16.67;;;13.53;;
4533;SDS011;2279;51.448;7.306;2023-04-29T12:39:42;21.30;;;14.10;;
4533;SDS011;2279;51.448;7.306;2023-04-29T12:42:15;18.27;;;13.90;;
4533;SDS011;2279;51.448;7.306;2023-04-29T12:44:44;19.43;;;14.90;;
4533;SDS011;2279;51.448;7.306;2023-04-29T12:47:14;17.37;;;13.10;;
4533;SDS011;2279;51.448;7.306;2023-04-29T12:49:41;23.03;;;14.47;;
4533;SDS011;2279;51.448;7.306;2023-04-29T12:52:07;15.70;;;12.57;;
4533;SDS011;2279;51.448;7.306;2023-04-29T12:54:37;14.90;;;11.30;;
4533;SDS011;2279;51.448;7.306;2023-04-29T12:57:05;17.03;;;13.27;;
4533;SDS011;2279;51.448;7.306;2023-04-29T12:59:32;14.47;;;12.50;;
4533;SDS011;2279;51.448;7.306;2023-04-29T13:01:58;17.10;;;13.27;;
4533;SDS011;2279;51.448;7.306;2023-04-29T13:04:24;16.97;;;10.50;;
4533;SDS011;2279;51.448;7.306;2023-04-29T13:06:50;15.93;;;12.30;;
4533;SDS011;2279;51.448;7.306;2023-04-29T13:09:23;15.87;;;12.67;;
4533;SDS011;2279;51.448;7.306;2023-04-29T13:11:49;14.97;;;12.80;;
4533;SDS011;2279;51.448;7.306;2023-04-29T13:14:15;19.20;;;11.87;;
4533;SDS011;2279;51.448;7.306;2023-04-29T13:16:42;17.80;;;12.37;;
4533;SDS011;2279;51.448;7.306;2023-04-29T13:19:08;15.63;;;12.40;;
4533;SDS011;2279;51.448;7.306;2023-04-29T13:21:34;13.33;;;9.83;;
4533;SDS011;2279;51.448;7.306;2023-04-29T13:24:01;14.50;;;11.73;;
4533;SDS011;2279;51.448;7.306;2023-04-29T13:26:27;16.57;;;12.90;;
4533;SDS011;2279;51.448;7.306;2023-04-29T13:28:53;17.13;;;11.90;;
4533;SDS011;2279;51.448;7.306;2023-04-29T13:31:19;14.20;;;11.40;;
4533;SDS011;2279;51.448;7.306;2023-04-29T13:33:45;14.10;;;11.90;;
4533;SDS011;2279;51.448;7.306;2023-04-29T13:36:12;15.37;;;11.93;;
4533;SDS011;2279;51.448;7.306;2023-04-29T13:38:38;15.87;;;10.73;;
4533;SDS011;2279;51.448;7.306;2023-04-29T13:41:04;16.10;;;11.47;;
4533;SDS011;2279;51.448;7.306;2023-04-29T13:43:30;12.00;;;10.43;;
4533;SDS011;2279;51.448;7.306;2023-04-29T13:45:56;12.27;;;10.10;;
4533;SDS011;2279;51.448;7.306;2023-04-29T13:48:22;15.27;;;9.80;;
4533;SDS011;2279;51.448;7.306;2023-04-29T13:50:48;15.13;;;11.83;;
4533;SDS011;2279;51.448;7.306;2023-04-29T13:53:14;15.67;;;10.80;;
4533;SDS011;2279;51.448;7.306;2023-04-29T13:55:41;11.20;;;9.70;;
4533;SDS011;2279;51.448;7.306;2023-04-29T13:58:07;11.83;;;9.73;;
4533;SDS011;2279;51.448;7.306;2023-04-29T14:00:33;13.17;;;9.33;;
4533;SDS011;2279;51.448;7.306;2023-04-29T14:02:59;12.40;;;10.10;;
4533;SDS011;2279;51.448;7.306;2023-04-29T14:05:25;13.80;;;9.67;;
4533;SDS011;2279;51.448;7.306;2023-04-29T14:07:51;20.03;;;11.87;;
4533;SDS011;2279;51.448;7.306;2023-04-29T14:10:17;12.33;;;8.23;;
4533;SDS011;2279;51.448;7.306;2023-04-29T14:12:43;15.83;;;8.87;;
4533;SDS011;2279;51.448;7.306;2023-04-29T14:15:09;14.70;;;9.37;;
4533;SDS011;2279;51.448;7.306;2023-04-29T14:17:36;11.87;;;9.20;;
4533;SDS011;2279;51.448;7.306;2023-04-29T14:20:02;14.67;;;10.43;;
4533;SDS011;2279;51.448;7.306;2023-04-29T14:22:28;14.67;;;10.17;;
4533;SDS011;2279;51.448;7.306;2023-04-29T14:24:54;13.77;;;10.67;;
4533;SDS011;2279;51.448;7.306;2023-04-29T14:27:20;11.83;;;10.20;;
4533;SDS011;2279;51.448;7.306;2023-04-29T14:29:46;12.77;;;9.17;;
4533;SDS011;2279;51.448;7.306;2023-04-29T14:32:12;11.70;;;10.50;;
4533;SDS011;2279;51.448;7.306;2023-04-29T14:34:38;15.67;;;9.30;;
4533;SDS011;2279;51.448;7.306;2023-04-29T14:37:04;13.20;;;10.30;;
4533;SDS011;2279;51.448;7.306;2023-04-29T14:39:30;12.30;;;9.80;;
4533;SDS011;2279;51.448;7.306;2023-04-29T14:41:56;19.87;;;11.27;;
4533;SDS011;2279;51.448;7.306;2023-04-29T14:44:22;17.20;;;10.57;;
4533;SDS011;2279;51.448;7.306;2023-04-29T14:46:48;14.47;;;11.40;;
4533;SDS011;2279;51.448;7.306;2023-04-29T14:49:14;14.63;;;10.13;;
4533;SDS011;2279;51.448;7.306;2023-04-29T14:51:40;14.23;;;10.43;;
4533;SDS011;2279;51.448;7.306;2023-04-29T14:54:06;9.17;;;8.27;;
4533;SDS011;2279;51.448;7.306;2023-04-29T14:56:33;10.80;;;9.53;;
4533;SDS011;2279;51.448;7.306;2023-04-29T14:59:00;13.27;;;10.50;;
4533;SDS011;2279;51.448;7.306;2023-04-29T15:01:26;12.57;;;10.57;;
4533;SDS011;2279;51.448;7.306;2023-04-29T15:03:52;13.53;;;9.90;;
4533;SDS011;2279;51.448;7.306;2023-04-29T15:06:18;12.90;;;9.93;;
4533;SDS011;2279;51.448;7.306;2023-04-29T15:08:44;11.53;;;8.73;;
4533;SDS011;2279;51.448;7.306;2023-04-29T15:11:10;12.60;;;10.27;;